Time;durP1;ratioP1;P1;durP2;ratioP2;P2;SDS_P1;SDS_P2;PMS_P1;PMS_P2;Temp;Humidity;BMP_temperature;BMP_pressure;BME280_temperature;BME280_humidity;BME280_pressure;Samples;Min_cycle;Max_cycle;Signal;HPM_P1;HPM_P2
2023/01/28 00:01:50;;;;;;;2.70;2.00;;;-1.20;99.90;;;;;;5063520;28;20404;-69
2023/01/28 00:04:17;;;;;;;2.20;2.00;;;-1.10;99.90;;;;;;5062383;28;20552;-69
2023/01/28 00:06:43;;;;;;;5.47;2.50;;;-1.20;99.90;;;;;;5060045;28;20198;-69
2023/01/28 00:09:09;;;;;;;2.03;1.80;;;-1.20;99.90;;;;;;5062286;28;20560;-69
2023/01/28 00:11:34;;;;;;;10.20;2.53;;;-1.20;99.90;;;;;;5058848;28;20916;-69
2023/01/28 00:14:00;;;;;;;3.60;2.80;;;-1.30;99.90;;;;;;5058592;28;20178;-69
2023/01/28 00:16:26;;;;;;;5.00;2.57;;;-1.20;99.90;;;;;;5061939;28;20177;-68
2023/01/28 00:18:53;;;;;;;8.63;2.60;;;-1.20;99.90;;;;;;5057930;28;20590;-68
2023/01/28 00:21:19;;;;;;;2.73;2.50;;;-1.20;99.90;;;;;;5057070;28;20444;-69
2023/01/28 00:23:54;;;;;;;3.83;2.50;;;-1.30;99.90;;;;;;5058713;28;20494;-70
2023/01/28 00:26:22;;;;;;;3.50;2.43;;;-1.30;99.90;;;;;;5064143;28;20185;-68
2023/01/28 00:28:47;;;;;;;3.53;2.83;;;-1.30;99.90;;;;;;5067990;28;20460;-69
2023/01/28 00:31:16;;;;;;;5.17;2.60;;;-1.30;99.90;;;;;;5062727;28;20448;-69
2023/01/28 00:33:43;;;;;;;4.20;2.20;;;-1.40;99.90;;;;;;5062712;28;20440;-69
2023/01/28 00:36:09;;;;;;;6.27;2.83;;;-1.40;99.90;;;;;;5061577;28;20464;-68
2023/01/28 00:38:35;;;;;;;4.70;3.50;;;-1.40;99.90;;;;;;5063352;28;20491;-69
2023/01/28 00:41:08;;;;;;;6.07;2.67;;;-1.50;99.90;;;;;;5064496;28;20465;-68
2023/01/28 00:43:34;;;;;;;5.13;2.80;;;-1.50;99.90;;;;;;5060137;28;20183;-68
2023/01/28 00:45:59;;;;;;;2.47;2.23;;;-1.50;99.90;;;;;;5060280;28;20436;-69
2023/01/28 00:48:25;;;;;;;2.70;2.37;;;-1.50;99.90;;;;;;5060136;28;20988;-69
2023/01/28 00:50:51;;;;;;;5.40;3.30;;;-1.50;99.90;;;;;;5061426;28;20587;-68
2023/01/28 00:53:16;;;;;;;2.53;2.33;;;-1.60;99.90;;;;;;5056179;28;20661;-69
2023/01/28 00:55:42;;;;;;;3.33;3.03;;;-1.60;99.90;;;;;;5060430;28;20186;-69
2023/01/28 00:58:07;;;;;;;2.60;2.40;;;-1.60;99.90;;;;;;5061119;28;20202;-69
2023/01/28 01:00:33;;;;;;;3.80;2.73;;;-1.60;99.90;;;;;;5057128;28;20281;-69
2023/01/28 01:02:59;;;;;;;3.67;2.60;;;-1.60;99.90;;;;;;5059485;28;20181;-69
2023/01/28 01:05:24;;;;;;;2.30;2.10;;;-1.70;99.90;;;;;;5061502;28;20185;-70
2023/01/28 01:07:50;;;;;;;12.60;2.53;;;-1.70;99.90;;;;;;5065896;28;20457;-70
2023/01/28 01:10:18;;;;;;;8.10;2.27;;;-1.70;99.90;;;;;;5067173;28;20198;-70
2023/01/28 01:12:46;;;;;;;2.90;2.67;;;-1.70;99.90;;;;;;5062606;28;20253;-69
2023/01/28 01:15:12;;;;;;;4.60;3.47;;;-1.60;99.90;;;;;;5056148;28;21038;-70
2023/01/28 01:17:39;;;;;;;5.60;2.80;;;-1.60;99.90;;;;;;5062637;28;20448;-67
2023/01/28 01:20:07;;;;;;;3.67;2.47;;;-1.60;99.90;;;;;;5064953;28;20528;-70
2023/01/28 01:22:35;;;;;;;2.57;1.93;;;-1.60;99.90;;;;;;5058837;28;20433;-68
2023/01/28 01:25:02;;;;;;;2.33;2.13;;;-1.50;99.90;;;;;;5061292;28;20432;-70
2023/01/28 01:27:28;;;;;;;2.00;1.83;;;-1.40;99.90;;;;;;5059084;28;20534;-70
2023/01/28 01:29:54;;;;;;;2.30;2.10;;;-1.30;99.90;;;;;;5053804;28;20464;-69
2023/01/28 01:32:21;;;;;;;8.70;2.87;;;-1.20;99.90;;;;;;5062128;28;20425;-70
2023/01/28 01:34:47;;;;;;;6.97;3.47;;;-1.10;99.90;;;;;;5056626;28;20182;-70
2023/01/28 01:37:12;;;;;;;4.90;2.10;;;-1.10;99.90;;;;;;5062536;28;20498;-69
2023/01/28 01:39:38;;;;;;;7.83;2.97;;;-1.00;99.90;;;;;;5073216;28;20429;-68
2023/01/28 01:42:03;;;;;;;3.57;2.37;;;-0.90;99.90;;;;;;5060125;28;20182;-68
2023/01/28 01:44:56;;;;;;;3.60;3.30;;;-0.80;99.90;;;;;;5064375;28;20179;-68
2023/01/28 01:47:37;;;;;;;3.03;2.80;;;-0.80;99.90;;;;;;5067402;28;20598;-68
2023/01/28 01:50:28;;;;;;;14.30;2.60;;;-0.70;99.90;;;;;;5068221;28;20541;-69
2023/01/28 01:52:59;;;;;;;3.17;2.03;;;-0.70;99.90;;;;;;5058179;28;20511;-69
2023/01/28 01:55:28;;;;;;;2.77;2.03;;;-0.60;99.90;;;;;;5061300;28;20417;-67
2023/01/28 01:57:57;;;;;;;5.90;3.80;;;-0.60;99.90;;;;;;5069337;28;20436;-69
2023/01/28 02:00:22;;;;;;;9.93;2.03;;;-0.50;99.90;;;;;;5072700;28;20827;-69
2023/01/28 02:02:51;;;;;;;4.97;3.10;;;-0.50;99.90;;;;;;5071489;28;20412;-69
2023/01/28 02:05:20;;;;;;;3.80;2.80;;;-0.40;99.90;;;;;;5072615;28;20184;-69
2023/01/28 02:07:48;;;;;;;3.77;2.70;;;-0.40;99.90;;;;;;5072745;28;20432;-68
2023/01/28 02:10:15;;;;;;;5.43;2.97;;;-0.30;99.90;;;;;;5065654;28;20468;-70
2023/01/28 02:12:49;;;;;;;2.43;2.23;;;-0.30;99.90;;;;;;5059115;28;20959;-68
2023/01/28 02:15:23;;;;;;;2.57;2.30;;;-0.30;99.90;;;;;;5060673;28;20495;-68
2023/01/28 02:17:50;;;;;;;4.60;2.63;;;-0.30;99.90;;;;;;5054863;28;20577;-70
2023/01/28 02:20:23;;;;;;;4.47;2.20;;;-0.20;99.90;;;;;;5055903;28;20782;-69
2023/01/28 02:23:03;;;;;;;2.87;2.57;;;-0.20;99.90;;;;;;5061910;28;20437;-68
2023/01/28 02:25:46;;;;;;;3.03;2.83;;;-0.20;99.90;;;;;;5057952;28;20563;-68
2023/01/28 02:28:17;;;;;;;3.93;3.00;;;-0.10;99.90;;;;;;5060089;28;20479;-68
2023/01/28 02:30:56;;;;;;;3.80;2.90;;;-0.10;99.90;;;;;;5056369;28;20543;-68
2023/01/28 02:33:54;;;;;;;3.07;2.40;;;0.00;99.90;;;;;;5061467;28;20472;-69
2023/01/28 02:36:38;;;;;;;4.30;3.07;;;0.00;99.90;;;;;;5057372;28;20818;-69
2023/01/28 02:39:11;;;;;;;4.03;1.70;;;0.00;99.90;;;;;;5062923;28;20435;-69
2023/01/28 02:41:44;;;;;;;3.43;2.20;;;0.00;99.90;;;;;;5061108;28;20869;-68
2023/01/28 02:44:09;;;;;;;2.80;2.60;;;0.00;99.90;;;;;;5063023;28;20428;-68
2023/01/28 02:49:29;;;;;;;4.60;2.20;;;0.00;99.90;;;;;;5060085;28;20264;-68
2023/01/28 02:52:18;;;;;;;3.10;2.60;;;0.00;99.90;;;;;;5060093;28;20446;-68
2023/01/28 02:55:14;;;;;;;4.60;2.23;;;0.00;99.90;;;;;;5058523;28;20430;-68
2023/01/28 02:57:54;;;;;;;2.30;2.10;;;0.10;99.90;;;;;;5060183;28;20449;-68
2023/01/28 03:00:37;;;;;;;6.23;3.10;;;0.10;99.90;;;;;;5057467;28;20527;-68
2023/01/28 03:03:32;;;;;;;2.30;2.10;;;0.10;99.90;;;;;;5061169;28;20443;-68
2023/01/28 03:06:04;;;;;;;2.67;2.30;;;0.20;99.90;;;;;;5077068;23;20486;-69
2023/01/28 03:36:48;;;;;;;3.67;1.67;;;0.20;99.90;;;;;;5025244;28;20473;-67
2023/01/28 03:39:14;;;;;;;5.63;2.77;;;0.20;99.90;;;;;;5023692;28;20442;-68
2023/01/28 03:41:40;;;;;;;2.60;2.30;;;0.20;99.90;;;;;;5007672;28;20507;-68
2023/01/28 03:46:50;;;;;;;2.60;2.40;;;0.20;99.90;;;;;;5023151;28;20436;-68
2023/01/28 03:49:16;;;;;;;3.53;2.37;;;0.30;99.90;;;;;;5020676;28;20485;-68
2023/01/28 03:51:43;;;;;;;2.23;2.03;;;0.30;99.90;;;;;;5023761;28;21006;-68
2023/01/28 03:54:09;;;;;;;4.33;2.60;;;0.30;99.90;;;;;;5023627;28;20810;-68
2023/01/28 03:56:36;;;;;;;3.50;2.80;;;0.30;99.90;;;;;;5027380;28;20560;-68
2023/01/28 03:59:03;;;;;;;2.67;2.47;;;0.30;99.90;;;;;;5026580;28;20208;-68
2023/01/28 04:01:28;;;;;;;2.17;1.60;;;0.40;99.90;;;;;;5021418;28;20418;-68
2023/01/28 04:03:54;;;;;;;2.40;2.20;;;0.40;99.90;;;;;;5023607;28;20415;-68
2023/01/28 04:06:19;;;;;;;2.07;1.87;;;0.40;99.90;;;;;;5033171;28;20310;-69
2023/01/28 04:08:51;;;;;;;7.23;1.80;;;0.40;99.90;;;;;;5019896;28;20172;-69
2023/01/28 04:11:19;;;;;;;1.90;1.80;;;0.40;99.90;;;;;;5031534;28;20606;-68
2023/01/28 04:13:45;;;;;;;2.87;2.37;;;0.50;99.90;;;;;;5027435;28;20441;-68
2023/01/28 04:16:12;;;;;;;2.60;2.40;;;0.50;99.90;;;;;;5023577;28;20912;-68
2023/01/28 04:18:38;;;;;;;2.40;2.03;;;0.50;99.90;;;;;;5028937;28;20503;-69
2023/01/28 04:21:04;;;;;;;3.33;1.97;;;0.50;99.90;;;;;;5029509;28;20438;-68
2023/01/28 04:23:29;;;;;;;2.43;2.23;;;0.60;99.90;;;;;;5029731;28;20262;-69
2023/01/28 04:25:55;;;;;;;1.53;1.43;;;0.60;99.90;;;;;;5025848;28;20191;-69
2023/01/28 04:28:21;;;;;;;1.80;1.70;;;0.70;99.90;;;;;;5024455;28;20268;-69
2023/01/28 04:30:46;;;;;;;2.53;1.70;;;0.70;99.90;;;;;;5026644;28;20202;-69
2023/01/28 04:33:12;;;;;;;2.90;2.63;;;0.70;99.90;;;;;;5029562;28;20176;-69
2023/01/28 04:35:38;;;;;;;2.10;1.90;;;0.70;99.90;;;;;;5027025;28;20866;-69
2023/01/28 04:38:04;;;;;;;2.67;2.43;;;0.70;99.90;;;;;;5028903;28;20485;-68
2023/01/28 04:40:29;;;;;;;2.50;2.30;;;0.70;99.90;;;;;;5027012;28;20647;-68
2023/01/28 04:42:55;;;;;;;2.13;1.93;;;0.80;99.90;;;;;;5024544;28;20183;-68
2023/01/28 04:45:21;;;;;;;2.13;2.03;;;0.70;99.90;;;;;;5026625;28;20223;-68
2023/01/28 04:47:47;;;;;;;2.40;1.63;;;0.80;99.90;;;;;;5028464;28;20438;-69
2023/01/28 04:50:13;;;;;;;2.23;2.10;;;0.80;99.90;;;;;;5023360;28;21191;-68
2023/01/28 04:52:39;;;;;;;2.27;2.07;;;0.80;99.90;;;;;;5028803;28;20441;-68
2023/01/28 04:55:06;;;;;;;2.23;1.97;;;0.80;99.90;;;;;;5025343;28;20317;-67
2023/01/28 04:57:32;;;;;;;2.67;2.43;;;0.80;99.90;;;;;;5027108;28;20180;-68
2023/01/28 04:59:58;;;;;;;2.73;1.90;;;0.80;99.90;;;;;;5027172;28;20445;-68
2023/01/28 05:02:23;;;;;;;3.70;2.57;;;0.80;99.90;;;;;;5026437;28;20194;-68
2023/01/28 05:04:49;;;;;;;1.80;1.70;;;0.80;99.90;;;;;;5026135;28;20211;-68
2023/01/28 05:07:14;;;;;;;4.23;2.23;;;0.80;99.90;;;;;;5027919;28;20261;-68
2023/01/28 05:09:40;;;;;;;3.03;2.17;;;0.90;99.90;;;;;;5027496;28;20236;-68
2023/01/28 05:12:06;;;;;;;1.70;1.60;;;0.90;99.90;;;;;;5008662;28;20261;-69
2023/01/28 05:14:31;;;;;;;5.10;2.17;;;0.90;99.90;;;;;;5024615;28;20203;-69
2023/01/28 05:16:57;;;;;;;2.50;2.30;;;0.90;99.90;;;;;;5028885;28;20234;-69
2023/01/28 05:19:22;;;;;;;2.50;2.30;;;0.90;99.90;;;;;;5027443;28;20201;-69
2023/01/28 05:21:48;;;;;;;2.80;1.93;;;0.90;99.90;;;;;;5026957;28;20270;-68
2023/01/28 05:24:14;;;;;;;2.67;1.93;;;0.90;99.90;;;;;;5024961;28;20229;-68
2023/01/28 05:26:40;;;;;;;3.40;3.00;;;0.90;99.90;;;;;;5026467;28;20199;-70
2023/01/28 05:29:06;;;;;;;2.83;2.00;;;0.90;99.90;;;;;;5023679;28;20462;-68
2023/01/28 05:31:32;;;;;;;6.93;2.50;;;1.00;99.90;;;;;;5026633;28;20824;-68
2023/01/28 05:33:58;;;;;;;2.20;2.00;;;1.00;99.90;;;;;;5026252;28;20795;-68
2023/01/28 05:36:24;;;;;;;4.37;2.77;;;1.00;99.90;;;;;;5026842;28;20450;-68
2023/01/28 05:38:49;;;;;;;3.93;3.53;;;1.00;99.90;;;;;;5025857;28;20183;-68
2023/01/28 05:41:16;;;;;;;4.17;2.97;;;1.00;99.90;;;;;;5026801;28;20890;-68
2023/01/28 05:43:41;;;;;;;4.40;2.57;;;1.00;99.90;;;;;;5026301;28;20622;-68
2023/01/28 05:46:07;;;;;;;5.93;3.40;;;1.10;99.90;;;;;;5023831;28;20441;-68
2023/01/28 05:48:33;;;;;;;3.33;2.90;;;1.10;99.90;;;;;;5027362;28;20488;-67
2023/01/28 05:50:59;;;;;;;4.77;3.47;;;1.10;99.90;;;;;;5025151;28;20498;-68
2023/01/28 05:53:25;;;;;;;3.63;3.23;;;1.10;99.90;;;;;;5028270;28;20627;-68
2023/01/28 05:55:52;;;;;;;9.00;3.27;;;1.10;99.90;;;;;;5031661;28;20204;-67
2023/01/28 05:58:19;;;;;;;3.47;2.77;;;1.10;99.90;;;;;;5027556;28;20414;-68
2023/01/28 06:00:45;;;;;;;4.47;4.03;;;1.10;99.90;;;;;;5031644;28;20433;-68
2023/01/28 06:03:12;;;;;;;5.97;3.53;;;1.10;99.90;;;;;;5028625;28;20441;-68
2023/01/28 06:05:38;;;;;;;8.03;3.90;;;1.10;99.90;;;;;;5022199;28;20473;-68
2023/01/28 06:08:04;;;;;;;8.17;4.60;;;1.00;99.90;;;;;;5026417;28;20864;-68
2023/01/28 06:10:30;;;;;;;7.10;5.27;;;1.10;99.90;;;;;;5025527;28;20268;-68
2023/01/28 06:12:55;;;;;;;7.40;4.80;;;1.10;99.90;;;;;;5024805;28;20903;-68
2023/01/28 06:15:21;;;;;;;6.30;4.23;;;1.10;99.90;;;;;;5023032;28;20378;-68
2023/01/28 06:17:46;;;;;;;8.43;4.37;;;1.10;99.90;;;;;;5026983;28;20290;-68
2023/01/28 06:20:12;;;;;;;8.50;4.90;;;1.10;99.90;;;;;;5024696;28;20195;-67
2023/01/28 06:22:38;;;;;;;6.00;4.10;;;1.10;99.90;;;;;;5007462;28;20215;-68
2023/01/28 06:25:04;;;;;;;6.77;4.07;;;1.10;99.90;;;;;;5024689;28;20681;-68
2023/01/28 06:27:29;;;;;;;7.27;3.47;;;1.10;99.90;;;;;;5023841;28;20213;-69
2023/01/28 06:29:55;;;;;;;4.33;3.50;;;1.10;99.90;;;;;;5007825;28;20468;-68
2023/01/28 06:32:20;;;;;;;8.93;4.33;;;1.10;99.90;;;;;;5026576;28;20168;-67
2023/01/28 06:34:46;;;;;;;5.43;3.60;;;1.10;99.90;;;;;;5027172;28;20207;-68
2023/01/28 06:37:15;;;;;;;9.07;3.60;;;1.10;99.90;;;;;;5025846;28;20211;-68
2023/01/28 06:39:40;;;;;;;4.13;3.63;;;1.10;99.90;;;;;;5025861;28;20210;-68
2023/01/28 06:42:06;;;;;;;4.03;3.20;;;1.10;99.90;;;;;;5026886;28;20442;-67
2023/01/28 06:44:31;;;;;;;4.20;3.23;;;1.10;99.90;;;;;;5026678;28;20186;-68
2023/01/28 06:46:57;;;;;;;6.43;3.27;;;1.10;99.90;;;;;;5025099;28;20179;-68
2023/01/28 06:49:23;;;;;;;8.20;3.50;;;1.10;99.90;;;;;;5026848;28;20210;-68
2023/01/28 06:51:49;;;;;;;3.20;2.93;;;1.20;99.90;;;;;;5021900;28;20641;-68
2023/01/28 06:54:14;;;;;;;4.27;3.30;;;1.10;99.90;;;;;;5024116;28;20204;-69
2023/01/28 06:56:40;;;;;;;5.50;3.60;;;1.10;99.90;;;;;;5026652;28;20235;-68
2023/01/28 06:59:06;;;;;;;9.10;3.30;;;1.10;99.90;;;;;;5024995;28;20270;-67
2023/01/28 07:01:32;;;;;;;5.10;3.20;;;1.10;99.90;;;;;;5026726;28;20207;-68
2023/01/28 07:03:57;;;;;;;5.47;3.27;;;1.10;99.90;;;;;;5024821;28;20208;-68
2023/01/28 07:06:23;;;;;;;3.87;2.57;;;1.10;99.90;;;;;;5025357;28;20855;-68
2023/01/28 07:08:48;;;;;;;3.70;2.97;;;1.20;99.90;;;;;;5022651;28;20180;-67
2023/01/28 07:11:15;;;;;;;5.37;3.27;;;1.20;99.90;;;;;;5025926;28;21022;-68
2023/01/28 07:13:42;;;;;;;4.17;3.50;;;1.20;99.90;;;;;;5025100;28;20680;-69
2023/01/28 07:16:08;;;;;;;3.83;2.97;;;1.20;99.90;;;;;;5025041;28;20482;-68
2023/01/28 07:18:33;;;;;;;4.73;3.40;;;1.30;99.90;;;;;;5024971;28;20241;-68
2023/01/28 07:20:59;;;;;;;4.07;3.37;;;1.30;99.90;;;;;;5024573;28;20645;-69
2023/01/28 07:23:25;;;;;;;3.47;3.17;;;1.20;99.90;;;;;;5022105;28;20369;-69
2023/01/28 07:25:50;;;;;;;7.80;3.03;;;1.30;99.90;;;;;;5025964;28;20687;-68
2023/01/28 07:28:20;;;;;;;3.60;2.73;;;1.30;99.90;;;;;;5022453;28;20818;-71
2023/01/28 07:30:49;;;;;;;4.93;2.63;;;1.30;99.90;;;;;;5022886;28;20869;-69
2023/01/28 07:33:16;;;;;;;2.20;2.00;;;1.20;99.90;;;;;;5025331;28;20461;-68
2023/01/28 07:35:41;;;;;;;3.87;1.97;;;1.30;99.90;;;;;;5026326;28;20825;-67
2023/01/28 07:38:07;;;;;;;2.93;1.70;;;1.30;99.90;;;;;;5004846;28;20465;-68
2023/01/28 07:40:32;;;;;;;3.63;2.30;;;1.40;99.90;;;;;;5025714;28;20656;-68
2023/01/28 07:42:59;;;;;;;2.27;1.97;;;1.30;99.90;;;;;;5024550;28;20183;-69
2023/01/28 07:45:25;;;;;;;3.13;2.93;;;1.30;99.90;;;;;;5024420;28;20218;-68
2023/01/28 07:47:59;;;;;;;4.33;2.33;;;1.40;99.90;;;;;;5002573;28;20477;-70
2023/01/28 07:50:27;;;;;;;3.90;2.33;;;1.40;99.90;;;;;;5003925;28;20462;-69
2023/01/28 07:52:53;;;;;;;2.33;2.00;;;1.40;99.90;;;;;;5025665;28;20785;-69
2023/01/28 07:55:19;;;;;;;2.27;2.00;;;1.40;99.90;;;;;;5021695;28;20446;-68
2023/01/28 07:57:53;;;;;;;1.73;1.60;;;1.40;99.90;;;;;;5029318;28;20402;-69
2023/01/28 08:00:21;;;;;;;2.10;1.90;;;1.40;99.90;;;;;;5026622;28;20174;-69
2023/01/28 08:02:47;;;;;;;5.80;1.87;;;1.50;99.90;;;;;;5019835;28;20484;-70
2023/01/28 08:05:20;;;;;;;2.13;2.00;;;1.60;99.90;;;;;;5023381;28;21210;-69
2023/01/28 08:07:48;;;;;;;3.23;2.63;;;1.60;99.90;;;;;;5021369;28;20430;-68
2023/01/28 08:10:15;;;;;;;2.30;2.13;;;1.60;99.90;;;;;;5025096;28;20549;-70
2023/01/28 08:12:53;;;;;;;1.97;1.77;;;1.60;99.90;;;;;;5019351;28;20941;-68
2023/01/28 08:15:19;;;;;;;2.07;1.97;;;1.80;99.90;;;;;;5022846;28;20462;-68
2023/01/28 08:17:44;;;;;;;6.87;2.43;;;1.80;99.90;;;;;;5023124;28;20792;-68
2023/01/28 08:20:11;;;;;;;3.67;2.03;;;1.80;99.90;;;;;;5021950;28;20254;-68
2023/01/28 08:22:36;;;;;;;2.60;1.90;;;1.80;99.90;;;;;;5025586;28;20193;-69
2023/01/28 08:25:02;;;;;;;1.63;1.53;;;1.90;99.90;;;;;;5021942;28;20463;-69
2023/01/28 08:27:27;;;;;;;1.33;1.23;;;2.20;99.90;;;;;;5024209;28;20271;-68
2023/01/28 08:29:53;;;;;;;3.03;2.00;;;2.40;99.90;;;;;;5025492;28;20615;-69
2023/01/28 08:32:19;;;;;;;2.47;1.70;;;2.60;99.90;;;;;;5026561;28;20176;-69
2023/01/28 08:34:45;;;;;;;2.63;2.43;;;2.60;99.90;;;;;;5024061;28;20302;-68
2023/01/28 08:37:10;;;;;;;3.53;2.97;;;2.50;99.90;;;;;;5022471;28;20480;-68
2023/01/28 08:39:36;;;;;;;4.80;2.70;;;2.20;99.90;;;;;;5024918;28;20547;-68
2023/01/28 08:42:02;;;;;;;3.50;1.83;;;2.10;99.90;;;;;;5022840;28;20207;-69
2023/01/28 08:44:27;;;;;;;4.60;2.03;;;2.00;99.90;;;;;;5022420;28;20219;-69
2023/01/28 08:46:53;;;;;;;2.63;1.77;;;2.00;99.90;;;;;;5026517;28;20557;-69
2023/01/28 08:49:18;;;;;;;2.67;2.23;;;2.10;99.90;;;;;;5027828;28;20265;-69
2023/01/28 08:51:44;;;;;;;3.93;1.70;;;2.20;99.90;;;;;;5027682;28;20188;-69
2023/01/28 08:54:10;;;;;;;2.90;1.50;;;2.10;99.90;;;;;;5028122;28;20171;-68
2023/01/28 08:56:36;;;;;;;3.50;1.30;;;2.10;99.90;;;;;;5028821;28;20195;-69
2023/01/28 08:59:01;;;;;;;2.10;1.40;;;2.20;99.90;;;;;;5024488;28;20349;-68
2023/01/28 09:01:28;;;;;;;2.60;1.63;;;2.20;99.90;;;;;;5027495;28;20641;-68
2023/01/28 09:03:53;;;;;;;1.50;1.40;;;2.20;99.90;;;;;;5025828;28;20184;-69
2023/01/28 09:06:19;;;;;;;3.67;1.40;;;2.30;99.90;;;;;;5008038;28;20488;-68
2023/01/28 09:08:45;;;;;;;3.60;1.80;;;2.20;99.90;;;;;;5025505;28;20182;-69
2023/01/28 09:11:10;;;;;;;1.57;1.47;;;2.20;99.90;;;;;;5009343;28;20187;-68
2023/01/28 09:13:36;;;;;;;2.70;1.30;;;2.30;99.90;;;;;;5028281;28;20180;-69
2023/01/28 09:16:05;;;;;;;3.77;1.40;;;2.30;99.90;;;;;;5026520;28;23800;-69
2023/01/28 09:18:30;;;;;;;7.50;1.80;;;2.30;99.90;;;;;;5027854;28;20175;-69
2023/01/28 09:20:56;;;;;;;1.30;1.20;;;2.20;99.90;;;;;;5024555;28;20499;-69
2023/01/28 09:23:21;;;;;;;1.77;1.00;;;2.20;99.90;;;;;;5027334;28;20327;-69
2023/01/28 09:25:47;;;;;;;1.10;1.03;;;2.20;99.90;;;;;;5010060;28;20576;-69
2023/01/28 09:28:13;;;;;;;1.93;1.43;;;2.30;99.90;;;;;;5023638;28;20183;-68
2023/01/28 09:30:38;;;;;;;1.90;1.50;;;2.30;99.90;;;;;;5024668;28;20230;-69
2023/01/28 09:33:04;;;;;;;0.97;0.97;;;2.40;99.90;;;;;;5025445;28;20658;-69
2023/01/28 09:35:31;;;;;;;1.40;1.23;;;2.30;99.90;;;;;;5025666;28;20564;-69
2023/01/28 09:37:58;;;;;;;1.77;1.50;;;2.40;99.90;;;;;;5024292;28;20430;-69
2023/01/28 09:40:42;;;;;;;1.63;1.03;;;2.30;99.90;;;;;;5027955;28;20545;-69
2023/01/28 09:43:24;;;;;;;1.43;1.20;;;2.20;99.90;;;;;;5028141;28;20445;-69
2023/01/28 09:45:54;;;;;;;1.03;0.93;;;2.30;99.90;;;;;;5030312;28;20522;-69
2023/01/28 09:48:23;;;;;;;3.70;1.27;;;2.30;99.90;;;;;;5027030;28;20477;-68
2023/01/28 09:50:52;;;;;;;1.03;0.90;;;2.30;99.90;;;;;;5023678;28;20490;-69
2023/01/28 09:53:19;;;;;;;2.23;1.00;;;2.30;99.90;;;;;;5023647;28;20525;-69
2023/01/28 09:55:59;;;;;;;2.00;1.30;;;2.40;99.90;;;;;;5025952;28;20437;-69
2023/01/28 09:58:25;;;;;;;1.00;0.90;;;2.40;99.90;;;;;;5022872;28;20430;-69
2023/01/28 10:01:24;;;;;;;1.83;1.20;;;2.50;99.90;;;;;;5027849;28;20398;-69
2023/01/28 10:04:09;;;;;;;1.03;0.93;;;2.50;99.90;;;;;;5025130;28;20180;-69
2023/01/28 10:06:38;;;;;;;1.27;1.17;;;2.60;99.90;;;;;;5023948;28;20589;-69
2023/01/28 10:09:15;;;;;;;2.10;1.40;;;2.60;99.90;;;;;;5022351;28;20551;-69
2023/01/28 10:11:47;;;;;;;2.37;1.53;;;2.60;99.90;;;;;;5024224;28;20468;-69
2023/01/28 10:14:21;;;;;;;1.40;1.00;;;2.50;99.90;;;;;;5021614;28;20481;-68
2023/01/28 10:17:07;;;;;;;1.03;1.03;;;2.70;99.90;;;;;;5020648;28;20426;-69
2023/01/28 10:19:40;;;;;;;3.80;1.30;;;2.70;99.90;;;;;;5024143;28;20560;-69
2023/01/28 10:22:13;;;;;;;1.83;1.40;;;2.60;99.90;;;;;;5021472;28;20496;-68
2023/01/28 10:24:48;;;;;;;1.73;1.23;;;2.50;99.90;;;;;;5022861;28;20540;-69
2023/01/28 10:27:23;;;;;;;1.70;1.60;;;2.60;99.90;;;;;;5023645;28;21130;-70
2023/01/28 10:29:50;;;;;;;2.60;1.60;;;2.70;99.90;;;;;;5020249;28;20822;-68
2023/01/28 10:32:41;;;;;;;2.60;1.50;;;2.80;99.90;;;;;;5021799;28;20484;-68
2023/01/28 10:35:07;;;;;;;2.87;1.07;;;2.80;99.90;;;;;;5025073;28;20529;-69
2023/01/28 10:37:35;;;;;;;2.40;0.90;;;2.80;99.90;;;;;;5027032;28;20426;-69
2023/01/28 10:40:03;;;;;;;5.20;0.90;;;2.80;99.90;;;;;;5021832;28;20924;-70
2023/01/28 10:42:34;;;;;;;1.53;1.30;;;2.90;99.90;;;;;;5024658;28;20442;-69
2023/01/28 10:45:04;;;;;;;1.77;1.60;;;2.90;99.90;;;;;;5017760;28;20555;-69
2023/01/28 10:47:45;;;;;;;1.20;1.03;;;3.00;99.90;;;;;;5018410;28;20434;-68
2023/01/28 10:50:22;;;;;;;1.20;0.87;;;3.00;99.90;;;;;;5022637;28;20461;-69
2023/01/28 10:52:53;;;;;;;1.00;1.00;;;3.10;99.90;;;;;;5019982;28;20426;-69
2023/01/28 10:55:20;;;;;;;2.17;1.20;;;3.20;99.90;;;;;;5021669;28;20904;-68
2023/01/28 10:57:46;;;;;;;1.83;1.17;;;3.00;99.90;;;;;;5021859;28;20475;-70
2023/01/28 11:00:29;;;;;;;1.47;1.10;;;3.00;99.90;;;;;;5022262;28;20442;-69
2023/01/28 11:02:56;;;;;;;1.70;1.13;;;3.00;99.90;;;;;;5019635;28;20183;-69
2023/01/28 11:05:30;;;;;;;3.20;1.13;;;3.00;99.90;;;;;;5022464;28;20818;-69
2023/01/28 11:08:13;;;;;;;0.80;0.70;;;2.90;99.90;;;;;;5004642;28;20472;-69
2023/01/28 11:10:40;;;;;;;1.53;1.20;;;3.00;99.90;;;;;;5022739;28;20548;-69
2023/01/28 11:13:17;;;;;;;1.43;1.03;;;3.10;99.90;;;;;;5023154;28;20445;-69
2023/01/28 11:16:02;;;;;;;2.07;1.40;;;3.20;99.90;;;;;;5022092;28;20442;-68
2023/01/28 11:18:32;;;;;;;1.20;0.90;;;3.00;99.90;;;;;;5018865;28;20793;-67
2023/01/28 11:21:05;;;;;;;2.17;1.60;;;3.00;99.90;;;;;;5021339;28;20465;-68
2023/01/28 11:23:34;;;;;;;1.13;1.07;;;3.10;99.90;;;;;;5018059;28;20445;-71
2023/01/28 11:26:07;;;;;;;2.00;1.10;;;3.10;99.90;;;;;;5021194;28;20569;-69
2023/01/28 11:28:33;;;;;;;1.67;1.23;;;3.00;99.90;;;;;;5022329;28;20436;-68
2023/01/28 11:31:01;;;;;;;1.23;1.07;;;3.10;99.90;;;;;;5019052;28;20525;-69
2023/01/28 11:33:37;;;;;;;1.30;1.00;;;3.00;99.90;;;;;;5024394;28;20836;-68
2023/01/28 11:36:06;;;;;;;3.83;1.57;;;2.90;99.90;;;;;;5022277;28;20943;-68
2023/01/28 11:38:33;;;;;;;1.10;1.00;;;2.90;99.90;;;;;;5022414;28;20529;-71
2023/01/28 11:41:00;;;;;;;1.30;1.13;;;2.80;99.90;;;;;;5021352;28;20460;-68
2023/01/28 11:43:28;;;;;;;1.80;0.80;;;2.70;99.90;;;;;;5023570;28;20485;-68
2023/01/28 11:46:19;;;;;;;3.10;1.60;;;2.80;99.90;;;;;;5013621;28;20439;-69
2023/01/28 11:48:58;;;;;;;2.30;1.37;;;2.50;99.90;;;;;;5019218;28;20499;-72
2023/01/28 11:51:35;;;;;;;2.60;1.77;;;2.40;99.90;;;;;;5020093;28;20434;-69
2023/01/28 11:54:22;;;;;;;3.43;1.63;;;2.60;99.90;;;;;;5023530;28;20430;-69
2023/01/28 11:57:14;;;;;;;3.00;1.60;;;2.50;99.90;;;;;;5025154;28;20410;-68
2023/01/28 12:00:12;;;;;;;1.73;1.30;;;2.50;99.90;;;;;;5020806;28;20438;-67
2023/01/28 12:02:52;;;;;;;2.20;1.63;;;2.40;99.90;;;;;;5020963;28;20505;-69
2023/01/28 12:05:30;;;;;;;2.37;1.77;;;2.60;99.90;;;;;;5029143;28;20544;-68
2023/01/28 16:47:03;;;;;;;2.93;1.93;;;1.60;99.90;;;;;;5071872;23;20504;-73
2023/01/28 16:49:28;;;;;;;1.60;1.50;;;1.60;99.90;;;;;;4887321;29;20487;-72
2023/01/28 16:51:54;;;;;;;4.10;2.13;;;1.60;99.90;;;;;;4896897;29;20967;-73
2023/01/28 16:54:20;;;;;;;6.00;2.17;;;1.60;99.90;;;;;;4894649;29;20596;-73
2023/01/28 16:56:45;;;;;;;5.60;2.47;;;1.50;99.90;;;;;;4888737;29;20456;-73
2023/01/28 16:59:13;;;;;;;3.40;1.63;;;1.50;99.90;;;;;;4887439;29;20476;-74
2023/01/28 17:01:39;;;;;;;4.23;2.80;;;1.50;99.90;;;;;;4883430;29;20180;-72
2023/01/28 17:04:08;;;;;;;2.27;2.07;;;1.60;99.90;;;;;;4893295;29;20421;-75
2023/01/28 17:06:36;;;;;;;2.00;1.37;;;1.50;99.90;;;;;;4871591;29;20625;-75
2023/01/28 17:09:05;;;;;;;3.67;1.67;;;1.50;99.90;;;;;;4906769;23;20420;-67
2023/01/28 17:11:31;;;;;;;4.87;3.03;;;1.50;99.90;;;;;;4874483;29;20538;-67
2023/01/28 17:13:58;;;;;;;2.23;1.90;;;1.50;99.90;;;;;;4878376;29;20422;-67
2023/01/28 17:16:23;;;;;;;1.73;1.57;;;1.40;99.90;;;;;;4873850;29;20545;-67
2023/01/28 17:18:50;;;;;;;2.57;2.37;;;1.50;99.90;;;;;;4866274;29;21005;-68
2023/01/28 17:21:16;;;;;;;2.23;2.00;;;1.40;99.90;;;;;;4866340;29;20575;-68
2023/01/28 17:23:41;;;;;;;4.53;1.87;;;1.40;99.90;;;;;;4875026;29;20439;-68
2023/01/28 17:26:11;;;;;;;1.73;1.50;;;1.40;99.90;;;;;;4871809;29;20624;-67
2023/01/28 17:28:36;;;;;;;4.27;2.00;;;1.40;99.90;;;;;;4870231;29;20192;-68
2023/01/28 17:31:07;;;;;;;4.17;1.90;;;1.40;99.90;;;;;;4870130;29;20473;-68
2023/01/28 17:33:32;;;;;;;1.70;1.60;;;1.40;99.90;;;;;;4865132;29;20177;-67
2023/01/28 17:36:00;;;;;;;3.13;2.07;;;1.40;99.90;;;;;;4854468;29;20502;-68
2023/01/28 17:38:26;;;;;;;2.50;1.80;;;1.30;99.90;;;;;;4871464;29;20178;-68
2023/01/28 17:40:52;;;;;;;4.97;2.20;;;1.30;99.90;;;;;;4874340;29;20456;-68
2023/01/28 17:43:18;;;;;;;4.17;2.00;;;1.30;99.90;;;;;;4875943;29;20185;-67
2023/01/28 17:45:43;;;;;;;2.23;1.70;;;1.40;99.90;;;;;;4872085;29;20173;-68
2023/01/28 17:48:09;;;;;;;6.40;3.80;;;1.40;99.90;;;;;;4869740;29;20189;-66
2023/01/28 17:50:39;;;;;;;1.73;1.63;;;1.30;99.90;;;;;;4876047;29;20287;-68
2023/01/28 17:53:04;;;;;;;2.67;1.83;;;1.20;99.90;;;;;;4877075;29;20532;-67
2023/01/28 17:55:33;;;;;;;10.00;2.50;;;1.20;99.90;;;;;;4872380;29;20538;-67
2023/01/28 17:57:58;;;;;;;2.93;2.10;;;1.10;99.90;;;;;;4874569;29;20264;-66
2023/01/28 18:00:25;;;;;;;1.97;1.80;;;1.10;99.90;;;;;;4877188;29;20521;-68
2023/01/28 18:02:51;;;;;;;1.50;1.40;;;1.10;99.90;;;;;;4873401;29;20200;-68
2023/01/28 18:05:17;;;;;;;2.70;1.53;;;1.00;99.90;;;;;;4870991;29;20422;-68
2023/01/28 18:07:44;;;;;;;2.97;1.87;;;1.00;99.90;;;;;;4871060;29;20437;-67
2023/01/28 18:10:11;;;;;;;2.00;1.73;;;1.00;99.90;;;;;;4879201;29;20947;-69
2023/01/28 18:12:36;;;;;;;2.03;1.93;;;0.90;99.90;;;;;;4871277;29;20421;-68
2023/01/28 18:15:02;;;;;;;7.77;2.20;;;0.90;99.90;;;;;;4876328;29;20977;-67
2023/01/28 18:17:28;;;;;;;5.43;2.93;;;0.90;99.90;;;;;;4875829;29;20269;-67